Groton Long Point, Connecticut
Current Conditions -  °F | °C
As of 6:56 PM on Friday 28 Nov 2014 (Local Time) from KGON Reporting Station
Clear Clear  
Wind Chill: 21°   Ceiling: Unl
Heat Index: 30°   Visibility: 9mi
Dew Point: 19°   Wind: 10mph
Humidity: 64%   Direction: 320°NW
Pressure: 30.2"   Gusts: NA
Location:  41.3595°N, 72.0439°W
Report Text: KGON 282356Z 32009KT 9SM CLR M01/M07 A3020 RMK AO2 SLP225 T10111072 10033 21011 51023
Loading
Personal Weather Stations






























Interactive Weather Map New forecast layout! Learn more

10-Day Weather Forecast

Advertisements
Track Severe Weather on mobile